Latest Coastal Weather Observations for St Helens

IDT60701

Issued at 6:52 pm EDT Friday 19 December 2014 (issued every 10 minutes, with the page automatically refreshed every 10 minutes)

About coastal observations | Map of coastal stations | Coastal observations for TAS | Marine services | Other Formats
Station Details ID: 092120 Name: ST HELENS AERODROME Lat: -41.34 Lon: 148.28 Height: 48.0 m
Data from the previous 72 hours. | See also: Recent months at St Helens
Date/Time
EDT
Temp

°C
Wind Pressure Rain
since 9am
mm
Weather Cloud Vis
km
Sea
Height
m
Swell
Dir
 
Speed
knots
Gust
knots
hPa Trend Height
m
Period
s
Dir
19/06:30pm 17.0 SE 7 12 1013.2 - 0.0 - - - - - - -
19/06:00pm 15.9 ESE 7 12 1012.8 - 0.0 - - - - - - -
19/05:30pm 15.7 E 7 13 1012.8 - 0.0 - - - - - - -
19/05:00pm 15.9 E 10 16 1013.0 - 0.0 - - - - - - -
19/04:30pm 16.4 E 12 17 1012.9 - 0.0 - - - - - - -
19/04:00pm 16.4 ENE 12 16 1013.0 - 0.0 - - - - - - -
19/03:30pm 16.5 NE 12 16 1013.0 - 0.0 - - - - - - -
19/03:00pm 17.1 NE 11 15 1012.8 - 0.0 - - - - - - -
19/02:30pm 18.0 NE 10 15 1012.8 - 0.0 - - - - - - -
19/02:00pm 15.4 E 10 14 1012.8 - 0.0 - - - - - - -
19/01:30pm 15.5 ENE 10 15 1012.6 - 0.0 - - - - - - -
19/01:00pm 16.6 ENE 11 16 1012.2 - 0.0 - - - - - - -
19/12:30pm 17.4 ESE 7 11 1012.0 - 0.0 - - - - - - -
19/12:00pm 16.9 SSE 5 10 1011.9 - 0.0 - - - - - - -
19/11:30am 16.9 E 10 13 1011.9 - 0.0 - - - - - - -
19/11:00am 16.2 SE 7 13 1012.0 - 0.0 - - - - - - -
19/10:30am 17.0 S 7 13 1012.2 - 0.0 - - - - - - -
19/10:00am 16.4 S 6 11 1012.3 - 0.0 - - - - - - -
19/09:30am 16.2 SSW 9 16 1012.2 - 0.0 - - - - - - -
19/09:00am 15.6 SW 7 12 1012.1 - 0.8 Fine Partly cloudy 25 - - - -
19/08:30am 14.7 SSW 8 15 1012.0 - 0.8 - - - - - - -
19/08:00am 14.3 SSW 6 11 1011.6 - 0.8 - - - - - - -
19/07:30am 12.5 W 4 6 1011.4 - 0.8 - - - - - - -
19/07:00am 11.8 SSW 6 9 1010.9 - 0.8 - - - - - - -
19/06:30am 8.9 WNW 4 6 1010.7 - 0.8 - - - - - - -
19/06:00am 8.3 WNW 3 5 1010.1 - 0.8 - - - - - - -
19/05:30am 8.0 NW 4 6 1009.8 - 0.8 - - - - - - -
19/05:00am 8.8 WSW 4 6 1009.3 - 0.8 - - - - - - -
19/04:30am 8.6 SW 3 4 1008.9 - 0.8 - - - - - - -
19/04:00am 8.6 WNW 3 5 1008.3 - 0.8 - - - - - - -
19/03:30am 9.3 NW 6 8 1008.2 - 0.8 - - - - - - -
19/03:00am 9.1 WSW 2 5 1007.9 - 0.8 - - - - - - -
19/02:30am 9.5 NW 3 6 1007.7 - 0.8 - - - - - - -
19/02:00am 9.1 N 5 6 1007.6 - 0.8 - - - - - - -
19/01:30am 10.8 WNW 3 4 1007.3 - 0.8 - - - - - - -
19/01:00am 10.8 SW 4 5 1007.2 - 0.8 - - - - - - -
19/12:30am 10.9 WSW 3 4 1007.1 - 0.8 - - - - - - -
19/12:00am 12.1 WNW 3 5 1006.9 - 0.8 - - - - - - -
 
Date/Time
EDT
Temp

°C
Wind Pressure Rain
since 9am
mm
Weather Cloud Vis
km
Sea
Height
m
Swell
Dir
 
Speed
knots
Gust
knots
hPa Trend Height
m
Period
s
Dir
18/11:30pm 13.1 NNW 4 6 1006.7 - 0.8 - - - - - - -
18/11:00pm 12.7 ESE 3 6 1006.3 - 0.8 - - - - - - -
18/10:30pm 13.3 WSW 5 8 1005.5 - 0.8 - - - - - - -
18/10:00pm 14.1 WNW 7 12 1005.3 - 0.8 - - - - - - -
18/09:30pm 14.3 W 5 10 1005.1 - 0.8 - - - - - - -
18/09:00pm 14.9 WSW 7 14 1004.6 - 0.8 - - - - - - -
18/08:30pm 15.5 W 8 14 1004.0 - 0.8 - - - - - - -
18/08:00pm 16.5 W 9 19 1003.2 - 0.8 - - - - - - -
18/07:30pm 16.9 W 10 19 1002.9 - 0.8 - - - - - - -
18/07:00pm 18.1 W 8 17 1002.4 - 0.8 - - - - - - -
18/06:30pm 16.9 W 8 17 1002.1 - 0.8 - - - - - - -
18/06:00pm 17.2 WSW 9 16 1002.2 - 0.8 - - - - - - -
18/05:30pm 17.8 NW 12 23 1001.7 - 0.8 - - - - - - -
18/05:00pm 19.4 WSW 8 14 1001.5 - 0.8 - - - - - - -
18/04:30pm 19.8 NW 10 17 1001.3 - 0.8 - - - - - - -
18/04:00pm 20.6 WNW 11 20 1001.3 - 0.8 - - - - - - -
18/03:30pm 19.3 N 13 19 1001.4 - 0.8 - - - - - - -
18/03:00pm 17.9 NNE 12 21 1001.5 - 0.8 - - - - - - -
18/02:30pm 17.8 NNE 15 23 1001.9 - 0.8 - - - - - - -
18/02:00pm 17.5 NNE 11 16 1002.5 - 0.8 - - - - - - -
18/01:30pm 16.0 NNE 10 18 1003.2 - 0.6 - - - - - - -
18/01:00pm 17.8 N 10 14 1003.7 - 0.0 - - - - - - -
18/12:30pm 18.8 N 10 14 1004.1 - 0.0 - - - - - - -
18/12:00pm 17.7 N 12 19 1004.5 - 0.0 - - - - - - -
18/11:30am 18.9 N 11 16 1004.6 - 0.0 - - - - - - -
18/11:00am 17.9 N 9 13 1005.1 - 0.0 - - - - - - -
18/10:30am 18.0 NNW 7 11 1005.4 - 0.0 - - - - - - -
18/10:00am 17.5 NNW 8 13 1005.7 - 0.0 - - - - - - -
18/09:30am 16.3 NNW 8 14 1006.0 - 0.0 - - - - - - -
18/09:00am 15.8 NW 6 10 1006.3 - 0.0 Fine Mostly cloudy 25 - - - -
18/08:30am 14.3 WNW 4 7 1006.4 - 0.0 - - - - - - -
18/08:00am 13.7 NW 7 11 1006.4 - 0.0 - - - - - - -
18/07:30am 14.0 NW 7 11 1006.5 - 0.0 - - - - - - -
18/07:00am 13.0 NW 3 6 1006.4 - 0.0 - - - - - - -
18/06:30am 12.5 NNW 5 7 1006.3 - 0.0 - - - - - - -
18/06:00am 12.2 NNW 7 11 1006.5 - 0.0 - - - - - - -
18/05:30am 11.5 NNW 6 10 1006.2 - 0.0 - - - - - - -
18/05:00am 11.9 NNW 7 10 1005.9 - 0.0 - - - - - - -
18/04:30am 11.5 NNW 7 11 1005.8 - 0.0 - - - - - - -
18/04:00am 11.9 NNW 6 11 1005.4 - 0.0 - - - - - - -
18/03:30am 11.4 NW 5 9 1005.4 - 0.0 - - - - - - -
18/03:00am 11.1 NNW 2 5 1005.4 - 0.0 - - - - - - -
18/02:30am 11.4 WNW 3 6 1005.3 - 0.0 - - - - - - -
18/02:00am 12.3 NW 5 8 1005.4 - 0.0 - - - - - - -
18/01:30am 12.3 NNW 5 8 1005.5 - 0.0 - - - - - - -
18/01:00am 12.4 W 4 7 1005.6 - 0.0 - - - - - - -
18/12:30am 12.8 NW 5 9 1005.5 - 0.0 - - - - - - -
18/12:00am 13.0 WSW 4 7 1005.7 - 0.0 - - - - - - -
 
Date/Time
EDT
Temp

°C
Wind Pressure Rain
since 9am
mm
Weather Cloud Vis
km
Sea
Height
m
Swell
Dir
 
Speed
knots
Gust
knots
hPa Trend Height
m
Period
s
Dir
17/11:30pm 13.8 WSW 5 10 1005.9 - 0.0 - - - - - - -
17/11:00pm 14.0 W 6 12 1006.0 - 0.0 - - - - - - -
17/10:30pm 14.2 W 6 10 1006.2 - 0.0 - - - - - - -
17/10:00pm 14.5 WNW 5 10 1006.3 - 0.0 - - - - - - -
17/09:30pm 14.9 WSW 6 11 1006.1 - 0.0 - - - - - - -
17/09:00pm 15.5 W 6 11 1005.9 - 0.0 - - - - - - -
17/08:30pm 15.8 W 7 11 1005.6 - 0.0 - - - - - - -
17/08:00pm 16.3 W 8 14 1005.4 - 0.0 - - - - - - -
17/07:30pm 17.0 WSW 9 17 1005.0 - 0.0 - - - - - - -
17/07:00pm 17.9 W 9 20 1004.6 - 0.0 - - - - - - -
17/06:30pm 18.4 W 8 15 1004.0 - 0.0 - - - - - - -
17/06:00pm 18.9 WSW 7 16 1003.6 - 0.0 - - - - - - -
17/05:30pm 19.1 WSW 8 16 1003.5 - 0.0 - - - - - - -
17/05:00pm 19.2 ENE 6 9 1003.5 - 0.0 - - - - - - -
17/04:30pm 19.0 ENE 6 9 1003.6 - 0.0 - - - - - - -
17/04:00pm 19.1 E 10 14 1003.7 - 0.0 - - - - - - -
17/03:30pm 18.5 E 12 15 1003.9 - 0.0 - - - - - - -
17/03:00pm 19.2 ENE 12 16 1003.9 - 0.0 - - - - - - -
17/02:30pm 19.3 ENE 12 15 1003.9 - 0.0 - - - - - - -
17/02:00pm 19.8 ENE 13 17 1003.8 - 0.0 - - - - - - -
17/01:30pm 18.5 E 12 18 1004.0 - 0.0 - - - - - - -
17/01:00pm 19.3 E 12 17 1003.9 - 0.0 - - - - - - -
17/12:30pm 18.7 NE 11 19 1004.0 - 0.0 - - - - - - -
17/12:00pm 18.5 ENE 10 15 1004.0 - 0.0 - - - - - - -
17/11:30am 17.9 WSW 8 16 1003.4 - 0.0 - - - - - - -
17/11:00am 18.8 SW 6 12 1003.4 - 0.0 - - - - - - -
17/10:30am 17.3 W 7 11 1003.4 - 0.0 - - - - - - -
17/10:00am 17.0 W 6 11 1003.0 - 0.0 - - - - - - -
17/09:30am 16.7 WSW 8 12 1002.9 - 0.0 - - - - - - -
17/09:00am 15.7 WSW 7 12 1002.8 - 2.2 Fine Mostly clear 30 - - - -
17/08:30am 14.9 W 5 11 1002.5 - 2.2 - - - - - - -
17/08:00am 13.9 NW 5 8 1002.2 - 2.2 - - - - - - -
17/07:30am 12.9 WNW 5 7 1001.5 - 2.2 - - - - - - -
17/07:00am 12.4 N 3 4 1001.0 - 2.2 - - - - - - -
17/06:30am 11.1 WNW 3 5 1000.5 - 2.2 - - - - - - -
17/06:00am 10.7 W 3 4 999.7 - 2.2 - - - - - - -
17/05:30am 10.6 W 1 5 999.1 - 2.2 - - - - - - -
17/05:00am 11.6 W 5 10 998.3 - 2.2 - - - - - - -
17/04:30am 10.9 WSW 4 6 997.8 - 2.2 - - - - - - -
17/04:00am 12.2 WNW 5 9 997.0 - 2.2 - - - - - - -
17/03:30am 12.8 NW 6 10 996.4 - 2.2 - - - - - - -
17/03:00am 12.9 W 6 11 995.8 - 2.2 - - - - - - -
17/02:30am 12.6 WNW 7 10 995.0 - 2.2 - - - - - - -
17/02:00am 12.6 NW 9 13 994.8 - 2.2 - - - - - - -
17/01:30am 13.3 WNW 8 14 994.0 - 2.2 - - - - - - -
17/01:00am 13.3 W 7 13 993.8 - 2.2 - - - - - - -
17/12:30am 13.5 W 7 13 993.3 - 2.2 - - - - - - -
17/12:00am 13.6 W 7 14 992.5 - 2.2 - - - - - - -
 
Date/Time
EDT
Temp

°C
Wind Pressure Rain
since 9am
mm
Weather Cloud Vis
km
Sea
Height
m
Swell
Dir
 
Speed
knots
Gust
knots
hPa Trend Height
m
Period
s
Dir
16/11:30pm 14.0 W 11 21 992.0 - 2.2 - - - - - - -
16/11:00pm 14.1 WNW 9 15 992.0 - 2.0 - - - - - - -
16/10:30pm 14.0 W 8 16 992.5 - 2.0 - - - - - - -
16/10:00pm 13.6 NNW 10 17 992.3 - 2.0 - - - - - - -
16/09:30pm 14.4 NW 12 22 992.0 - 2.0 - - - - - - -
16/09:00pm 14.4 NW 12 18 991.3 - 2.0 - - - - - - -
16/08:30pm 14.4 WNW 10 17 991.0 - 2.0 - - - - - - -
16/08:00pm 14.9 W 11 21 990.8 - 1.6 - - - - - - -
16/07:51pm 15.4 W 14 31 991.1 - 1.4 - - - - - - -
16/07:30pm 17.7 W 15 27 989.0 - 0.8 - - - - - - -
16/07:00pm 18.5 W 15 30 988.7 - 0.8 - - - - - - -

Other Formats:

Comma delimited format used in spreadsheet applications
http://www.bom.gov.au/fwo/IDT60701/IDT60701.95981.axf

JavaScript Object Notation format (JSON) in row-major order
http://www.bom.gov.au/fwo/IDT60701/IDT60701.95981.json